createdAt,value
2017-07-10T00:00:18.227Z,20.80
2017-07-10T00:02:46.783Z,21.00
2017-07-10T00:05:14.847Z,21.10
2017-07-10T00:07:43.470Z,21.10
2017-07-10T00:10:11.623Z,21.10
2017-07-10T00:12:39.787Z,21.10
2017-07-10T00:15:07.955Z,21.10
2017-07-10T00:17:36.136Z,21.10
2017-07-10T00:20:04.207Z,20.90
2017-07-10T00:22:32.681Z,20.90
2017-07-10T00:25:00.780Z,20.90
2017-07-10T00:27:28.936Z,21.00
2017-07-10T00:29:57.103Z,21.20
2017-07-10T00:32:25.181Z,21.30
2017-07-10T00:34:53.271Z,21.40
2017-07-10T00:37:21.335Z,21.40
2017-07-10T00:39:49.807Z,21.50
2017-07-10T00:42:17.979Z,21.70
2017-07-10T00:44:46.864Z,21.60
2017-07-10T00:47:14.941Z,21.70
2017-07-10T00:49:43.770Z,21.60
2017-07-10T00:52:12.627Z,21.60
2017-07-10T00:54:40.685Z,21.70
2017-07-10T00:57:08.779Z,21.60
2017-07-10T00:59:36.867Z,21.30
2017-07-10T01:02:04.931Z,21.30
2017-07-10T01:04:33.018Z,21.20
2017-07-10T01:07:01.850Z,21.30
2017-07-10T01:09:29.930Z,21.30
2017-07-10T01:11:57.986Z,21.40
2017-07-10T01:14:26.052Z,21.30
2017-07-10T01:16:54.135Z,21.30
2017-07-10T01:19:22.231Z,21.10
2017-07-10T01:21:50.318Z,21.10
2017-07-10T01:24:18.480Z,21.10
2017-07-10T01:26:46.959Z,21.10
2017-07-10T01:29:15.135Z,21.00
2017-07-10T01:31:43.366Z,21.00
2017-07-10T01:34:11.818Z,21.00
2017-07-10T01:36:39.959Z,20.80
2017-07-10T01:39:08.141Z,20.70
2017-07-10T01:41:37.027Z,20.50
2017-07-10T01:44:05.203Z,20.50
2017-07-10T01:46:33.671Z,20.50
2017-07-10T01:49:01.859Z,20.40
2017-07-10T01:51:30.352Z,20.40
2017-07-10T01:53:58.516Z,20.50
2017-07-10T01:56:26.691Z,20.50
2017-07-10T01:58:54.868Z,20.40
2017-07-10T02:01:23.030Z,20.60
2017-07-10T02:03:51.914Z,20.80
2017-07-10T02:06:20.107Z,20.90
2017-07-10T02:08:48.282Z,21.00
2017-07-10T02:11:16.864Z,20.90
2017-07-10T02:13:44.953Z,20.90
2017-07-10T02:16:13.103Z,20.90
2017-07-10T02:18:41.567Z,20.90
2017-07-10T02:21:09.660Z,20.90
2017-07-10T02:23:37.830Z,21.10
2017-07-10T02:26:05.919Z,21.20
2017-07-10T02:28:34.010Z,21.30
2017-07-10T02:31:02.074Z,21.30
2017-07-10T02:33:30.237Z,21.20
2017-07-10T02:35:58.316Z,21.30
2017-07-10T02:38:26.466Z,21.20
2017-07-10T02:40:54.647Z,21.30
2017-07-10T02:43:23.224Z,21.20
2017-07-10T02:45:51.703Z,21.10
2017-07-10T02:48:19.784Z,21.10
2017-07-10T02:50:47.960Z,21.00
2017-07-10T02:53:16.132Z,21.10
2017-07-10T02:55:44.308Z,21.00
2017-07-10T02:58:12.479Z,21.10
2017-07-10T03:00:40.646Z,21.00
2017-07-10T03:03:08.827Z,21.00
2017-07-10T03:05:36.898Z,21.10
2017-07-10T03:08:05.076Z,21.00
2017-07-10T03:10:33.555Z,21.00
2017-07-10T03:13:01.726Z,20.90
2017-07-10T03:15:29.904Z,20.90
2017-07-10T03:17:57.967Z,21.00
2017-07-10T03:20:26.539Z,21.00
2017-07-10T03:22:54.739Z,20.90
2017-07-10T03:25:22.953Z,21.00
2017-07-10T03:27:51.799Z,21.10
2017-07-10T03:30:19.975Z,21.10
2017-07-10T03:32:48.440Z,21.30
2017-07-10T03:35:16.632Z,21.30
2017-07-10T03:37:44.802Z,21.30
2017-07-10T03:40:13.388Z,21.40
2017-07-10T03:42:41.852Z,21.40
2017-07-10T03:45:10.754Z,21.40
2017-07-10T03:47:38.935Z,21.30
2017-07-10T03:50:07.004Z,21.30
2017-07-10T03:52:35.183Z,21.30
2017-07-10T03:55:03.234Z,21.30
2017-07-10T03:57:31.739Z,21.30
2017-07-10T03:59:59.912Z,21.30
2017-07-10T04:02:28.078Z,21.20
2017-07-10T04:04:56.561Z,21.10
2017-07-10T04:07:25.039Z,21.00
2017-07-10T04:09:53.145Z,20.90
2017-07-10T04:12:22.712Z,20.90
2017-07-10T04:14:50.794Z,20.90
2017-07-10T04:17:18.867Z,21.00
2017-07-10T04:19:46.944Z,21.00
2017-07-10T04:22:15.502Z,21.00
2017-07-10T04:24:43.623Z,20.90
2017-07-10T04:27:11.767Z,21.00
2017-07-10T04:29:39.953Z,21.00
2017-07-10T04:32:08.771Z,21.10
2017-07-10T04:34:36.912Z,21.00
2017-07-10T04:37:05.382Z,21.10
2017-07-10T04:39:33.558Z,21.20
2017-07-10T04:42:01.630Z,21.30
2017-07-10T04:44:29.812Z,21.20
2017-07-10T04:46:57.876Z,21.00
2017-07-10T04:49:26.050Z,21.10
2017-07-10T04:51:54.131Z,21.10
2017-07-10T04:54:22.198Z,21.10
2017-07-10T04:56:50.379Z,21.20
2017-07-10T04:59:18.447Z,21.20
2017-07-10T05:01:46.932Z,21.10
2017-07-10T05:04:15.407Z,21.20
2017-07-10T05:06:43.586Z,21.40
2017-07-10T05:09:11.727Z,21.40
2017-07-10T05:11:39.832Z,21.40
2017-07-10T05:14:07.998Z,21.30
2017-07-10T05:16:36.180Z,21.30
2017-07-10T05:19:04.244Z,21.30
2017-07-10T05:21:32.324Z,21.30
2017-07-10T05:24:00.604Z,21.40
2017-07-10T05:26:29.492Z,21.30
2017-07-10T05:28:57.664Z,21.40
2017-07-10T05:31:25.839Z,21.40
2017-07-10T05:33:54.016Z,21.40
2017-07-10T05:36:22.100Z,21.50
2017-07-10T05:38:50.260Z,21.50
2017-07-10T05:41:18.358Z,21.50
2017-07-10T05:43:46.915Z,21.40
2017-07-10T05:46:15.011Z,21.30
2017-07-10T05:48:43.143Z,21.30
2017-07-10T05:51:11.236Z,21.40
2017-07-10T05:53:39.318Z,21.30
2017-07-10T05:56:07.480Z,21.30
2017-07-10T05:58:35.958Z,21.20
2017-07-10T06:01:04.851Z,21.30
2017-07-10T06:03:32.911Z,21.30
2017-07-10T06:06:01.806Z,21.20
2017-07-10T06:08:29.867Z,21.10
2017-07-10T06:10:58.369Z,21.10
2017-07-10T06:13:26.443Z,21.10
2017-07-10T06:15:54.517Z,21.30
2017-07-10T06:18:22.679Z,21.40
2017-07-10T06:20:50.756Z,21.50
2017-07-10T06:23:19.642Z,21.60
2017-07-10T06:25:47.714Z,21.60
2017-07-10T06:28:15.804Z,21.70
2017-07-10T06:30:43.960Z,21.70
2017-07-10T06:33:12.040Z,21.80
2017-07-10T06:35:40.217Z,21.60
2017-07-10T06:38:08.466Z,21.40
2017-07-10T06:40:36.665Z,21.40
2017-07-10T06:43:04.731Z,21.50
2017-07-10T06:45:32.802Z,21.40
2017-07-10T06:48:00.984Z,21.50
2017-07-10T06:50:29.038Z,21.50
2017-07-10T06:52:59.080Z,21.40
2017-07-10T06:55:27.143Z,21.40
2017-07-10T06:57:55.216Z,21.30
2017-07-10T07:00:23.382Z,21.20
2017-07-10T07:02:51.842Z,21.20
2017-07-10T07:05:19.935Z,21.10
2017-07-10T07:07:48.424Z,21.10
2017-07-10T07:10:16.489Z,21.20
2017-07-10T07:12:44.980Z,21.10
2017-07-10T07:15:13.056Z,21.30
2017-07-10T07:17:41.526Z,21.30
2017-07-10T07:20:09.710Z,21.30
2017-07-10T07:22:37.798Z,21.30
2017-07-10T07:25:05.952Z,21.20
2017-07-10T07:27:34.028Z,21.20
2017-07-10T07:30:02.194Z,21.20
2017-07-10T07:32:30.269Z,21.10
2017-07-10T07:34:58.352Z,21.10
2017-07-10T07:37:26.407Z,21.10
2017-07-10T07:39:54.466Z,21.20
2017-07-10T07:42:22.554Z,21.20
2017-07-10T07:44:50.623Z,21.20
2017-07-10T07:47:18.707Z,21.30
2017-07-10T07:49:46.755Z,21.30
2017-07-10T07:52:15.239Z,21.30
2017-07-10T07:54:43.295Z,21.30
2017-07-10T07:57:11.746Z,21.40
2017-07-10T07:59:40.897Z,21.40
2017-07-10T08:02:09.379Z,21.60
2017-07-10T08:04:37.455Z,21.90
2017-07-10T08:07:05.731Z,22.30
2017-07-10T08:09:33.787Z,22.80
2017-07-10T08:12:01.870Z,23.10
2017-07-10T08:14:30.065Z,23.40
2017-07-10T08:16:58.123Z,23.50
2017-07-10T08:19:26.291Z,23.40
2017-07-10T08:21:54.351Z,23.30
2017-07-10T08:24:22.403Z,23.20
2017-07-10T08:26:50.606Z,23.00
2017-07-10T08:29:18.667Z,22.90
2017-07-10T08:31:46.728Z,22.90
2017-07-10T08:34:14.831Z,22.90
2017-07-10T08:36:43.824Z,23.20
2017-07-10T08:39:11.897Z,23.40
2017-07-10T08:41:39.989Z,23.80
2017-07-10T08:44:08.135Z,24.20
2017-07-10T08:46:36.410Z,24.50
2017-07-10T08:49:04.483Z,24.40
2017-07-10T08:51:32.554Z,24.20
2017-07-10T08:54:00.736Z,24.40
2017-07-10T08:56:28.912Z,24.60
2017-07-10T08:58:56.984Z,24.70
2017-07-10T09:01:25.155Z,24.50
2017-07-10T09:03:53.330Z,24.70
2017-07-10T09:06:22.164Z,24.60
2017-07-10T09:08:50.610Z,24.50
2017-07-10T09:11:18.684Z,25.00
2017-07-10T09:13:47.155Z,25.30
2017-07-10T09:16:15.635Z,25.70
2017-07-10T09:18:43.715Z,25.50
2017-07-10T09:21:12.218Z,25.30
2017-07-10T09:23:40.365Z,25.30
2017-07-10T09:26:08.822Z,25.20
2017-07-10T09:28:36.894Z,25.20
2017-07-10T09:31:05.339Z,25.20
2017-07-10T09:33:34.183Z,25.30
2017-07-10T09:36:02.664Z,25.80
2017-07-10T09:38:30.722Z,25.50
2017-07-10T09:40:58.817Z,25.70
2017-07-10T09:43:26.858Z,25.80
2017-07-10T09:45:54.956Z,25.60
2017-07-10T09:48:23.136Z,25.60
2017-07-10T09:50:51.304Z,26.20
2017-07-10T09:53:19.364Z,26.00
2017-07-10T09:55:47.451Z,25.70
2017-07-10T09:58:15.494Z,25.40
2017-07-10T10:00:43.715Z,25.30
2017-07-10T10:03:11.776Z,25.10
2017-07-10T10:05:39.839Z,25.20
2017-07-10T10:08:07.978Z,25.30
2017-07-10T10:10:36.336Z,25.70
2017-07-10T10:13:04.352Z,26.00
2017-07-10T10:15:32.419Z,26.10
2017-07-10T10:18:00.487Z,26.80
2017-07-10T10:20:28.700Z,26.80
2017-07-10T10:22:56.759Z,26.50
2017-07-10T10:25:24.820Z,26.50
2017-07-10T10:27:53.912Z,26.70
2017-07-10T10:30:22.015Z,26.60
2017-07-10T10:32:50.069Z,26.80
2017-07-10T10:35:18.195Z,26.60
2017-07-10T10:37:46.652Z,26.40
2017-07-10T10:40:14.707Z,26.10
2017-07-10T10:42:42.812Z,25.70
2017-07-10T10:45:11.683Z,25.50
2017-07-10T10:47:39.697Z,25.80
2017-07-10T10:50:08.162Z,26.90
2017-07-10T10:52:37.012Z,27.20
2017-07-10T10:55:05.072Z,27.30
2017-07-10T10:57:33.518Z,27.30
2017-07-10T11:00:01.610Z,27.60
2017-07-10T11:02:29.662Z,26.80
2017-07-10T11:04:58.131Z,26.20
2017-07-10T11:07:27.302Z,25.90
2017-07-10T11:09:55.444Z,25.60
2017-07-10T11:12:23.611Z,25.30
2017-07-10T11:14:51.674Z,25.40
2017-07-10T11:17:19.859Z,25.70
2017-07-10T11:19:48.026Z,25.80
2017-07-10T11:22:18.888Z,25.80
2017-07-10T11:24:47.759Z,25.90
2017-07-10T11:27:15.842Z,25.50
2017-07-10T11:29:43.924Z,25.40
2017-07-10T11:32:12.080Z,25.30
2017-07-10T11:34:40.151Z,25.60
2017-07-10T11:37:08.467Z,26.10
2017-07-10T11:39:36.504Z,27.10
2017-07-10T11:42:04.555Z,27.90
2017-07-10T11:44:32.694Z,28.10
2017-07-10T11:47:00.750Z,28.40
2017-07-10T11:49:28.812Z,27.70
2017-07-10T11:51:56.895Z,27.50
2017-07-10T11:54:24.951Z,27.20
2017-07-10T11:56:53.489Z,27.10
2017-07-10T11:59:21.587Z,27.20
2017-07-10T12:01:49.660Z,27.30
2017-07-10T12:04:17.845Z,27.20
2017-07-10T12:06:46.012Z,27.20
2017-07-10T12:09:14.189Z,26.90
2017-07-10T12:11:42.251Z,26.70
2017-07-10T12:14:10.328Z,26.60
2017-07-10T12:16:38.609Z,26.70
2017-07-10T12:19:06.793Z,26.40
2017-07-10T12:21:34.956Z,26.40
2017-07-10T12:24:03.128Z,25.70
2017-07-10T12:26:31.187Z,25.50
2017-07-10T12:28:59.383Z,25.30
2017-07-10T12:31:27.442Z,25.30
2017-07-10T12:33:55.596Z,25.20
2017-07-10T12:36:23.672Z,25.10
2017-07-10T12:38:51.772Z,25.00
2017-07-10T12:41:19.943Z,24.80
2017-07-10T12:43:48.415Z,24.50
2017-07-10T12:46:17.328Z,24.30
2017-07-10T12:48:45.490Z,24.20
2017-07-10T12:51:13.548Z,24.00
2017-07-10T12:53:41.638Z,23.90
2017-07-10T12:56:09.805Z,23.90
2017-07-10T12:58:37.858Z,23.90
2017-07-10T13:01:07.173Z,23.70
2017-07-10T13:03:35.233Z,23.80
2017-07-10T13:06:03.323Z,24.10
2017-07-10T13:08:31.491Z,24.70
2017-07-10T13:11:00.327Z,24.90
2017-07-10T13:13:29.165Z,25.10
2017-07-10T13:15:58.011Z,25.20
2017-07-10T13:18:26.858Z,25.00
2017-07-10T13:20:55.023Z,24.60
2017-07-10T13:23:23.100Z,24.40
2017-07-10T13:25:51.588Z,24.60
2017-07-10T13:28:20.069Z,24.80
2017-07-10T13:30:48.140Z,25.70
2017-07-10T13:33:16.313Z,27.00
2017-07-10T13:35:45.204Z,27.90
2017-07-10T13:38:13.252Z,28.70
2017-07-10T13:40:41.544Z,28.90
2017-07-10T13:43:09.618Z,28.60
2017-07-10T13:45:37.796Z,28.30
2017-07-10T13:48:05.962Z,28.20
2017-07-10T13:50:34.040Z,28.70
2017-07-10T13:53:02.092Z,28.30
2017-07-10T13:55:30.184Z,29.70
2017-07-10T13:57:58.256Z,30.20
2017-07-10T14:00:26.436Z,30.40
2017-07-10T14:02:54.487Z,30.10
2017-07-10T14:05:22.540Z,30.30
2017-07-10T14:07:51.470Z,30.50
2017-07-10T14:10:19.522Z,30.60
2017-07-10T14:12:47.588Z,30.00
2017-07-10T14:15:15.783Z,29.30
2017-07-10T14:17:43.857Z,28.20
2017-07-10T14:20:11.928Z,28.50
2017-07-10T14:22:40.098Z,28.60
2017-07-10T14:25:08.170Z,30.70
2017-07-10T14:27:36.249Z,30.70
2017-07-10T14:30:04.421Z,31.30
2017-07-10T14:32:32.480Z,31.20
2017-07-10T14:35:00.563Z,31.00
2017-07-10T14:37:28.666Z,31.10
2017-07-10T14:39:56.808Z,31.60
2017-07-10T14:42:24.880Z,31.40
2017-07-10T14:44:53.055Z,31.20
2017-07-10T14:47:21.108Z,31.40
2017-07-10T14:49:49.200Z,31.70
2017-07-10T14:52:17.366Z,32.30
2017-07-10T14:54:45.449Z,32.40
2017-07-10T14:57:13.519Z,32.60
2017-07-10T14:59:41.698Z,32.60
2017-07-10T15:02:09.759Z,32.30
2017-07-10T15:04:37.836Z,32.40
2017-07-10T15:07:05.903Z,31.80
2017-07-10T15:09:34.076Z,31.70
2017-07-10T15:12:02.146Z,30.10
2017-07-10T15:14:30.272Z,30.20
2017-07-10T15:16:59.117Z,29.50
2017-07-10T15:19:27.290Z,29.60
2017-07-10T15:21:55.370Z,29.80
2017-07-10T15:24:23.452Z,34.40
2017-07-10T15:26:51.602Z,30.20
2017-07-10T15:29:19.684Z,30.30
2017-07-10T15:31:47.760Z,29.30
2017-07-10T15:34:15.932Z,28.50
2017-07-10T15:36:44.095Z,27.90
2017-07-10T15:39:12.276Z,27.30
2017-07-10T15:41:40.348Z,26.90
2017-07-10T15:44:08.414Z,26.70
2017-07-10T15:46:36.495Z,26.40
2017-07-10T15:49:04.604Z,26.20
2017-07-10T15:51:32.735Z,26.00
2017-07-10T15:54:00.806Z,25.80
2017-07-10T15:56:28.987Z,25.80
2017-07-10T15:58:57.051Z,25.70
2017-07-10T16:01:25.227Z,25.40
2017-07-10T16:03:53.300Z,25.30
2017-07-10T16:06:21.784Z,25.30
2017-07-10T16:08:50.355Z,25.30
2017-07-10T16:11:18.434Z,25.10
2017-07-10T16:13:46.906Z,25.00
2017-07-10T16:16:14.971Z,24.90
2017-07-10T16:18:43.466Z,24.80
2017-07-10T16:21:11.643Z,24.80
2017-07-10T16:23:40.127Z,24.80
2017-07-10T16:26:08.304Z,24.60
2017-07-10T16:28:36.784Z,24.60
2017-07-10T16:31:04.959Z,24.50
2017-07-10T16:33:33.062Z,24.50
2017-07-10T16:36:01.139Z,24.50
2017-07-10T16:38:29.194Z,24.40
2017-07-10T16:40:57.342Z,24.30
2017-07-10T16:43:25.927Z,24.30
2017-07-10T16:45:54.417Z,24.30
2017-07-10T16:48:22.512Z,24.10
2017-07-10T16:50:50.670Z,24.10
2017-07-10T16:53:18.832Z,24.10
2017-07-10T16:55:47.317Z,24.10
2017-07-10T16:58:15.392Z,24.00
2017-07-10T17:00:43.556Z,24.10
2017-07-10T17:03:11.636Z,24.00
2017-07-10T17:05:39.715Z,24.00
2017-07-10T17:08:08.292Z,23.90
2017-07-10T17:10:36.628Z,23.90
2017-07-10T17:13:05.142Z,23.90
2017-07-10T17:15:33.320Z,23.90
2017-07-10T17:18:02.620Z,23.90
2017-07-10T17:20:30.691Z,23.90
2017-07-10T17:22:59.174Z,23.90
2017-07-10T17:25:28.936Z,23.80
2017-07-10T17:27:57.780Z,23.70
2017-07-10T17:30:25.948Z,23.70
2017-07-10T17:32:54.024Z,23.70
2017-07-10T17:35:22.199Z,23.80
2017-07-10T17:37:51.086Z,24.10
2017-07-10T17:40:19.156Z,24.20
2017-07-10T17:42:47.335Z,23.90
2017-07-10T17:45:15.395Z,23.70
2017-07-10T17:47:43.451Z,23.90
2017-07-10T17:50:11.556Z,23.60
2017-07-10T17:52:39.639Z,23.60
2017-07-10T17:55:07.807Z,23.50
2017-07-10T17:57:36.687Z,23.40
2017-07-10T18:00:05.550Z,23.30
2017-07-10T18:02:33.647Z,23.30
2017-07-10T18:05:01.723Z,23.20
2017-07-10T18:07:30.607Z,23.30
2017-07-10T18:09:58.688Z,23.40
2017-07-10T18:12:26.863Z,23.40
2017-07-10T18:14:54.936Z,23.40
2017-07-10T18:17:22.995Z,23.50
2017-07-10T18:19:51.060Z,23.40
2017-07-10T18:22:19.146Z,23.30
2017-07-10T18:24:47.207Z,23.30
2017-07-10T18:27:15.268Z,23.20
2017-07-10T18:29:43.338Z,23.10
2017-07-10T18:32:11.437Z,23.10
2017-07-10T18:34:40.000Z,23.10
2017-07-10T18:37:08.087Z,23.10
2017-07-10T18:39:36.156Z,23.10
2017-07-10T18:42:04.239Z,22.90
2017-07-10T18:44:32.311Z,22.70
2017-07-10T18:47:00.688Z,22.70
2017-07-10T18:49:29.158Z,22.80
2017-07-10T18:51:57.989Z,22.70
2017-07-10T18:54:26.128Z,22.70
2017-07-10T18:56:54.309Z,22.70
2017-07-10T18:59:22.895Z,22.60
2017-07-10T19:01:51.363Z,22.50
2017-07-10T19:04:19.445Z,22.50
2017-07-10T19:06:47.622Z,22.60
2017-07-10T19:09:15.797Z,22.50
2017-07-10T19:11:44.675Z,22.40
2017-07-10T19:14:12.851Z,22.40
2017-07-10T19:16:41.747Z,22.40
2017-07-10T19:19:10.217Z,22.40
2017-07-10T19:21:38.706Z,22.30
2017-07-10T19:24:06.783Z,22.30
2017-07-10T19:26:34.951Z,22.20
2017-07-10T19:29:03.131Z,22.10
2017-07-10T19:31:31.187Z,22.00
2017-07-10T19:34:00.090Z,22.00
2017-07-10T19:36:28.168Z,22.00
2017-07-10T19:38:56.661Z,21.90
2017-07-10T19:41:25.122Z,21.80
2017-07-10T19:43:53.179Z,21.80
2017-07-10T19:46:21.268Z,21.70
2017-07-10T19:48:49.342Z,21.70
2017-07-10T19:51:17.515Z,21.70
2017-07-10T19:53:46.348Z,21.70
2017-07-10T19:56:14.427Z,21.70
2017-07-10T19:58:43.263Z,21.70
2017-07-10T20:01:11.339Z,21.70
2017-07-10T20:03:39.395Z,21.70
2017-07-10T20:06:07.582Z,21.70
2017-07-10T20:08:35.654Z,21.60
2017-07-10T20:11:03.719Z,21.60
2017-07-10T20:13:31.791Z,21.60
2017-07-10T20:15:59.846Z,21.50
2017-07-10T20:18:27.948Z,21.50
2017-07-10T20:20:56.011Z,21.50
2017-07-10T20:23:24.187Z,21.40
2017-07-10T20:25:52.263Z,21.40
2017-07-10T20:28:20.491Z,21.40
2017-07-10T20:30:49.335Z,21.30
2017-07-10T20:33:17.386Z,21.30
2017-07-10T20:35:45.575Z,21.30
2017-07-10T20:38:13.753Z,21.30
2017-07-10T20:40:41.819Z,21.20
2017-07-10T20:43:09.999Z,21.10
2017-07-10T20:45:38.055Z,21.10
2017-07-10T20:48:06.240Z,21.00
2017-07-10T20:50:34.396Z,20.90
2017-07-10T20:53:02.483Z,20.90
2017-07-10T20:55:30.663Z,20.90
2017-07-10T20:57:58.834Z,20.90
2017-07-10T21:00:26.911Z,20.90
2017-07-10T21:02:54.984Z,20.80
2017-07-10T21:05:23.444Z,20.80
2017-07-10T21:07:51.949Z,20.80
2017-07-10T21:10:20.120Z,20.80
2017-07-10T21:12:48.287Z,20.80
2017-07-10T21:15:16.379Z,20.80
2017-07-10T21:17:44.532Z,20.70
2017-07-10T21:20:12.586Z,20.70
2017-07-10T21:22:40.684Z,20.80
2017-07-10T21:25:08.855Z,20.80
2017-07-10T21:27:36.933Z,20.70
2017-07-10T21:30:05.058Z,20.70
2017-07-10T21:32:33.996Z,20.70
2017-07-10T21:35:02.845Z,20.70
2017-07-10T21:37:31.304Z,20.70
2017-07-10T21:39:59.364Z,20.60
2017-07-10T21:42:27.427Z,20.60
2017-07-10T21:44:55.507Z,20.60
2017-07-10T21:47:23.564Z,20.70
2017-07-10T21:49:51.670Z,20.60
2017-07-10T21:52:19.719Z,20.60
2017-07-10T21:54:47.817Z,20.60
2017-07-10T21:57:15.852Z,20.60
2017-07-10T21:59:44.314Z,20.60
2017-07-10T22:02:12.382Z,20.70
2017-07-10T22:04:40.462Z,20.70
2017-07-10T22:07:09.291Z,20.70
2017-07-10T22:09:38.890Z,20.60
2017-07-10T22:12:06.943Z,20.60
2017-07-10T22:14:34.998Z,20.50
2017-07-10T22:17:03.083Z,20.60
2017-07-10T22:19:31.903Z,20.60
2017-07-10T22:22:00.034Z,20.60
2017-07-10T22:24:28.202Z,20.70
2017-07-10T22:26:56.690Z,20.60
2017-07-10T22:29:24.815Z,20.70
2017-07-10T22:31:53.661Z,20.60
2017-07-10T22:34:21.724Z,20.50
2017-07-10T22:36:50.216Z,20.60
2017-07-10T22:39:18.391Z,20.60
2017-07-10T22:41:46.964Z,20.60
2017-07-10T22:44:15.044Z,20.50
2017-07-10T22:46:43.212Z,20.50
2017-07-10T22:49:11.282Z,20.50
2017-07-10T22:51:39.365Z,20.60
2017-07-10T22:54:07.536Z,20.60
2017-07-10T22:56:35.604Z,20.60
2017-07-10T22:59:04.827Z,20.60
2017-07-10T23:01:32.882Z,20.70
2017-07-10T23:04:01.047Z,20.60
2017-07-10T23:06:29.128Z,20.50
2017-07-10T23:08:57.183Z,20.50
2017-07-10T23:11:25.654Z,20.50
2017-07-10T23:13:54.151Z,20.50
2017-07-10T23:16:22.239Z,20.60
2017-07-10T23:18:50.398Z,20.60
2017-07-10T23:21:18.477Z,20.50
2017-07-10T23:23:46.642Z,20.50
2017-07-10T23:26:14.827Z,20.50
2017-07-10T23:31:16.595Z,20.50
2017-07-10T23:33:45.079Z,20.40
2017-07-10T23:36:13.138Z,20.40
2017-07-10T23:38:41.743Z,20.50
2017-07-10T23:41:09.906Z,20.50
2017-07-10T23:43:37.959Z,20.40
2017-07-10T23:46:06.034Z,20.50
2017-07-10T23:48:34.090Z,20.50
2017-07-10T23:51:02.190Z,20.50
2017-07-10T23:53:30.690Z,20.60
2017-07-10T23:55:58.856Z,20.50
2017-07-10T23:58:26.939Z,20.60
